sensor_id;sensor_type;location;lat;lon;timestamp;P1;durP1;ratioP1;P2;durP2;ratioP2
78856;SDS011;68207;50.078;19.936;2024-03-22T00:02:10;57.10;;;33.80;;
78856;SDS011;68207;50.078;19.936;2024-03-22T00:04:36;55.80;;;35.20;;
78856;SDS011;68207;50.078;19.936;2024-03-22T00:07:01;56.50;;;33.70;;
78856;SDS011;68207;50.078;19.936;2024-03-22T00:09:27;59.70;;;34.50;;
78856;SDS011;68207;50.078;19.936;2024-03-22T00:11:52;60.80;;;36.40;;
78856;SDS011;68207;50.078;19.936;2024-03-22T00:14:18;60.50;;;35.90;;
78856;SDS011;68207;50.078;19.936;2024-03-22T00:16:43;55.60;;;34.60;;
78856;SDS011;68207;50.078;19.936;2024-03-22T00:19:08;62.80;;;35.60;;
78856;SDS011;68207;50.078;19.936;2024-03-22T00:21:33;59.70;;;35.40;;
78856;SDS011;68207;50.078;19.936;2024-03-22T00:23:59;62.90;;;35.50;;
78856;SDS011;68207;50.078;19.936;2024-03-22T00:26:25;61.20;;;36.70;;
78856;SDS011;68207;50.078;19.936;2024-03-22T00:28:51;59.40;;;36.00;;
78856;SDS011;68207;50.078;19.936;2024-03-22T00:31:16;65.30;;;37.30;;
78856;SDS011;68207;50.078;19.936;2024-03-22T00:33:41;56.40;;;34.70;;
78856;SDS011;68207;50.078;19.936;2024-03-22T00:36:07;57.50;;;35.40;;
78856;SDS011;68207;50.078;19.936;2024-03-22T00:38:32;61.60;;;34.20;;
78856;SDS011;68207;50.078;19.936;2024-03-22T00:40:57;58.90;;;34.60;;
78856;SDS011;68207;50.078;19.936;2024-03-22T00:43:23;54.60;;;33.00;;
78856;SDS011;68207;50.078;19.936;2024-03-22T00:45:48;56.60;;;34.90;;
78856;SDS011;68207;50.078;19.936;2024-03-22T00:48:13;59.00;;;33.30;;
78856;SDS011;68207;50.078;19.936;2024-03-22T00:50:38;53.50;;;33.10;;
78856;SDS011;68207;50.078;19.936;2024-03-22T00:53:03;58.10;;;33.30;;
78856;SDS011;68207;50.078;19.936;2024-03-22T00:55:30;55.30;;;32.40;;
78856;SDS011;68207;50.078;19.936;2024-03-22T00:57:55;53.60;;;31.70;;
78856;SDS011;68207;50.078;19.936;2024-03-22T01:00:20;51.20;;;31.80;;
78856;SDS011;68207;50.078;19.936;2024-03-22T01:02:46;58.80;;;33.80;;
78856;SDS011;68207;50.078;19.936;2024-03-22T01:05:11;53.70;;;33.30;;
78856;SDS011;68207;50.078;19.936;2024-03-22T01:07:36;57.80;;;33.30;;
78856;SDS011;68207;50.078;19.936;2024-03-22T01:10:02;55.50;;;34.00;;
78856;SDS011;68207;50.078;19.936;2024-03-22T01:12:27;53.30;;;33.20;;
78856;SDS011;68207;50.078;19.936;2024-03-22T01:14:53;57.00;;;33.20;;
78856;SDS011;68207;50.078;19.936;2024-03-22T01:17:19;59.80;;;37.20;;
78856;SDS011;68207;50.078;19.936;2024-03-22T01:19:44;58.40;;;33.90;;
78856;SDS011;68207;50.078;19.936;2024-03-22T01:22:09;58.40;;;34.30;;
78856;SDS011;68207;50.078;19.936;2024-03-22T01:24:34;56.10;;;35.20;;
78856;SDS011;68207;50.078;19.936;2024-03-22T01:26:59;57.20;;;36.00;;
78856;SDS011;68207;50.078;19.936;2024-03-22T01:29:24;56.20;;;33.80;;
78856;SDS011;68207;50.078;19.936;2024-03-22T01:31:49;57.70;;;34.30;;
78856;SDS011;68207;50.078;19.936;2024-03-22T01:34:15;52.10;;;32.30;;
78856;SDS011;68207;50.078;19.936;2024-03-22T01:36:40;63.60;;;35.70;;
78856;SDS011;68207;50.078;19.936;2024-03-22T01:39:05;57.00;;;34.40;;
78856;SDS011;68207;50.078;19.936;2024-03-22T01:41:30;54.80;;;34.10;;
78856;SDS011;68207;50.078;19.936;2024-03-22T01:43:56;57.50;;;34.00;;
78856;SDS011;68207;50.078;19.936;2024-03-22T01:46:21;61.40;;;35.30;;
78856;SDS011;68207;50.078;19.936;2024-03-22T01:48:46;54.10;;;34.10;;
78856;SDS011;68207;50.078;19.936;2024-03-22T01:51:11;56.10;;;35.70;;
78856;SDS011;68207;50.078;19.936;2024-03-22T01:53:37;54.70;;;35.40;;
78856;SDS011;68207;50.078;19.936;2024-03-22T01:56:02;60.90;;;35.50;;
78856;SDS011;68207;50.078;19.936;2024-03-22T01:58:27;58.00;;;35.70;;
78856;SDS011;68207;50.078;19.936;2024-03-22T02:00:53;53.40;;;33.30;;
78856;SDS011;68207;50.078;19.936;2024-03-22T02:03:18;56.10;;;34.40;;
78856;SDS011;68207;50.078;19.936;2024-03-22T02:05:43;55.00;;;34.90;;
78856;SDS011;68207;50.078;19.936;2024-03-22T02:08:08;60.10;;;36.50;;
78856;SDS011;68207;50.078;19.936;2024-03-22T02:10:34;56.30;;;35.90;;
78856;SDS011;68207;50.078;19.936;2024-03-22T02:12:59;53.30;;;34.50;;
78856;SDS011;68207;50.078;19.936;2024-03-22T02:15:24;54.10;;;35.40;;
78856;SDS011;68207;50.078;19.936;2024-03-22T02:17:49;62.20;;;36.30;;
78856;SDS011;68207;50.078;19.936;2024-03-22T02:20:14;56.90;;;36.40;;
78856;SDS011;68207;50.078;19.936;2024-03-22T02:22:40;59.00;;;34.00;;
78856;SDS011;68207;50.078;19.936;2024-03-22T02:25:05;54.40;;;34.60;;
78856;SDS011;68207;50.078;19.936;2024-03-22T02:27:30;56.50;;;33.10;;
78856;SDS011;68207;50.078;19.936;2024-03-22T02:29:55;55.40;;;33.80;;
78856;SDS011;68207;50.078;19.936;2024-03-22T02:32:21;60.40;;;35.40;;
78856;SDS011;68207;50.078;19.936;2024-03-22T02:34:46;54.00;;;33.60;;
78856;SDS011;68207;50.078;19.936;2024-03-22T02:37:11;56.70;;;34.90;;
78856;SDS011;68207;50.078;19.936;2024-03-22T02:39:36;54.50;;;33.60;;
78856;SDS011;68207;50.078;19.936;2024-03-22T02:42:02;56.90;;;34.90;;
78856;SDS011;68207;50.078;19.936;2024-03-22T02:44:27;55.50;;;34.10;;
78856;SDS011;68207;50.078;19.936;2024-03-22T02:46:52;56.70;;;33.40;;
78856;SDS011;68207;50.078;19.936;2024-03-22T02:49:17;54.20;;;32.90;;
78856;SDS011;68207;50.078;19.936;2024-03-22T02:51:42;50.60;;;31.80;;
78856;SDS011;68207;50.078;19.936;2024-03-22T02:54:07;53.20;;;32.90;;
78856;SDS011;68207;50.078;19.936;2024-03-22T02:56:32;50.00;;;31.80;;
78856;SDS011;68207;50.078;19.936;2024-03-22T02:58:58;49.90;;;30.90;;
78856;SDS011;68207;50.078;19.936;2024-03-22T03:01:23;50.10;;;31.90;;
78856;SDS011;68207;50.078;19.936;2024-03-22T03:03:48;48.10;;;28.80;;
78856;SDS011;68207;50.078;19.936;2024-03-22T03:06:13;55.20;;;32.90;;
78856;SDS011;68207;50.078;19.936;2024-03-22T03:08:39;52.80;;;30.80;;
78856;SDS011;68207;50.078;19.936;2024-03-22T03:11:04;47.50;;;29.20;;
78856;SDS011;68207;50.078;19.936;2024-03-22T03:13:29;46.70;;;29.40;;
78856;SDS011;68207;50.078;19.936;2024-03-22T03:15:54;46.10;;;29.10;;
78856;SDS011;68207;50.078;19.936;2024-03-22T03:18:19;43.40;;;27.20;;
78856;SDS011;68207;50.078;19.936;2024-03-22T03:20:44;44.30;;;29.10;;
78856;SDS011;68207;50.078;19.936;2024-03-22T03:23:09;45.50;;;27.80;;
78856;SDS011;68207;50.078;19.936;2024-03-22T03:25:34;44.40;;;28.10;;
78856;SDS011;68207;50.078;19.936;2024-03-22T03:28:00;43.50;;;26.60;;
78856;SDS011;68207;50.078;19.936;2024-03-22T03:30:25;37.90;;;25.10;;
78856;SDS011;68207;50.078;19.936;2024-03-22T03:32:51;40.00;;;26.20;;
78856;SDS011;68207;50.078;19.936;2024-03-22T03:35:16;40.20;;;26.40;;
78856;SDS011;68207;50.078;19.936;2024-03-22T03:37:41;40.40;;;25.80;;
78856;SDS011;68207;50.078;19.936;2024-03-22T03:40:06;40.30;;;25.70;;
78856;SDS011;68207;50.078;19.936;2024-03-22T03:42:32;37.80;;;25.50;;
78856;SDS011;68207;50.078;19.936;2024-03-22T03:44:57;37.00;;;24.30;;
78856;SDS011;68207;50.078;19.936;2024-03-22T03:47:22;38.80;;;25.60;;
78856;SDS011;68207;50.078;19.936;2024-03-22T03:49:47;36.50;;;24.70;;
78856;SDS011;68207;50.078;19.936;2024-03-22T03:52:13;41.00;;;25.50;;
78856;SDS011;68207;50.078;19.936;2024-03-22T03:54:38;43.40;;;26.40;;
78856;SDS011;68207;50.078;19.936;2024-03-22T03:57:03;38.40;;;24.80;;
78856;SDS011;68207;50.078;19.936;2024-03-22T03:59:31;37.30;;;25.50;;
78856;SDS011;68207;50.078;19.936;2024-03-22T04:01:56;34.00;;;24.00;;
78856;SDS011;68207;50.078;19.936;2024-03-22T04:04:22;35.90;;;25.00;;
78856;SDS011;68207;50.078;19.936;2024-03-22T04:06:47;36.40;;;24.80;;
78856;SDS011;68207;50.078;19.936;2024-03-22T04:09:12;37.00;;;24.80;;
78856;SDS011;68207;50.078;19.936;2024-03-22T04:11:37;38.60;;;26.10;;
78856;SDS011;68207;50.078;19.936;2024-03-22T04:14:03;37.30;;;26.50;;
78856;SDS011;68207;50.078;19.936;2024-03-22T04:16:29;39.50;;;26.80;;
78856;SDS011;68207;50.078;19.936;2024-03-22T04:18:54;39.10;;;25.90;;
78856;SDS011;68207;50.078;19.936;2024-03-22T04:21:19;40.80;;;26.40;;
78856;SDS011;68207;50.078;19.936;2024-03-22T04:23:44;38.50;;;26.40;;
78856;SDS011;68207;50.078;19.936;2024-03-22T04:26:09;44.80;;;26.60;;
78856;SDS011;68207;50.078;19.936;2024-03-22T04:28:35;39.60;;;27.30;;
78856;SDS011;68207;50.078;19.936;2024-03-22T04:31:03;39.60;;;25.80;;
78856;SDS011;68207;50.078;19.936;2024-03-22T04:33:29;40.20;;;26.90;;
78856;SDS011;68207;50.078;19.936;2024-03-22T04:35:55;46.30;;;27.50;;
78856;SDS011;68207;50.078;19.936;2024-03-22T04:38:24;41.00;;;26.10;;
78856;SDS011;68207;50.078;19.936;2024-03-22T04:40:49;43.60;;;26.90;;
78856;SDS011;68207;50.078;19.936;2024-03-22T04:43:14;43.00;;;27.50;;
78856;SDS011;68207;50.078;19.936;2024-03-22T04:45:41;40.60;;;26.60;;
78856;SDS011;68207;50.078;19.936;2024-03-22T04:48:06;41.30;;;25.60;;
78856;SDS011;68207;50.078;19.936;2024-03-22T04:50:31;42.80;;;25.30;;
78856;SDS011;68207;50.078;19.936;2024-03-22T04:52:57;38.10;;;25.30;;
78856;SDS011;68207;50.078;19.936;2024-03-22T04:55:22;37.30;;;25.70;;
78856;SDS011;68207;50.078;19.936;2024-03-22T04:57:47;35.00;;;24.70;;
78856;SDS011;68207;50.078;19.936;2024-03-22T05:00:12;36.50;;;24.20;;
78856;SDS011;68207;50.078;19.936;2024-03-22T05:02:38;39.60;;;25.30;;
78856;SDS011;68207;50.078;19.936;2024-03-22T05:05:03;38.50;;;23.40;;
78856;SDS011;68207;50.078;19.936;2024-03-22T05:07:28;36.90;;;22.60;;
78856;SDS011;68207;50.078;19.936;2024-03-22T05:09:53;32.60;;;22.10;;
78856;SDS011;68207;50.078;19.936;2024-03-22T05:12:18;36.30;;;24.50;;
78856;SDS011;68207;50.078;19.936;2024-03-22T05:14:44;31.60;;;21.60;;
78856;SDS011;68207;50.078;19.936;2024-03-22T05:17:09;39.00;;;23.80;;
78856;SDS011;68207;50.078;19.936;2024-03-22T05:19:34;32.10;;;23.60;;
78856;SDS011;68207;50.078;19.936;2024-03-22T05:21:59;32.80;;;22.50;;
78856;SDS011;68207;50.078;19.936;2024-03-22T05:24:25;32.30;;;22.50;;
78856;SDS011;68207;50.078;19.936;2024-03-22T05:26:50;31.10;;;22.00;;
78856;SDS011;68207;50.078;19.936;2024-03-22T05:29:15;29.60;;;21.20;;
78856;SDS011;68207;50.078;19.936;2024-03-22T05:31:47;45.70;;;22.10;;
78856;SDS011;68207;50.078;19.936;2024-03-22T05:34:13;29.90;;;21.00;;
78856;SDS011;68207;50.078;19.936;2024-03-22T05:36:39;33.40;;;21.90;;
78856;SDS011;68207;50.078;19.936;2024-03-22T05:39:04;32.90;;;22.00;;
78856;SDS011;68207;50.078;19.936;2024-03-22T05:41:29;33.50;;;21.10;;
78856;SDS011;68207;50.078;19.936;2024-03-22T05:43:55;32.70;;;22.50;;
78856;SDS011;68207;50.078;19.936;2024-03-22T05:46:20;31.00;;;21.10;;
78856;SDS011;68207;50.078;19.936;2024-03-22T05:48:45;32.30;;;22.80;;
78856;SDS011;68207;50.078;19.936;2024-03-22T05:51:10;30.70;;;21.50;;
78856;SDS011;68207;50.078;19.936;2024-03-22T05:53:35;36.00;;;23.50;;
78856;SDS011;68207;50.078;19.936;2024-03-22T05:56:00;38.50;;;23.70;;
78856;SDS011;68207;50.078;19.936;2024-03-22T05:58:26;33.60;;;22.40;;
78856;SDS011;68207;50.078;19.936;2024-03-22T06:00:51;38.00;;;23.10;;
78856;SDS011;68207;50.078;19.936;2024-03-22T06:03:18;39.10;;;23.90;;
78856;SDS011;68207;50.078;19.936;2024-03-22T06:05:43;37.60;;;21.90;;
78856;SDS011;68207;50.078;19.936;2024-03-22T06:08:08;32.70;;;22.20;;
78856;SDS011;68207;50.078;19.936;2024-03-22T06:10:33;41.10;;;23.60;;
78856;SDS011;68207;50.078;19.936;2024-03-22T06:12:59;34.20;;;22.30;;
78856;SDS011;68207;50.078;19.936;2024-03-22T06:15:24;39.00;;;22.70;;
78856;SDS011;68207;50.078;19.936;2024-03-22T06:17:49;36.80;;;22.70;;
78856;SDS011;68207;50.078;19.936;2024-03-22T06:20:15;39.40;;;23.20;;
78856;SDS011;68207;50.078;19.936;2024-03-22T06:22:40;32.60;;;23.70;;
78856;SDS011;68207;50.078;19.936;2024-03-22T06:25:05;37.40;;;24.20;;
78856;SDS011;68207;50.078;19.936;2024-03-22T06:27:30;36.30;;;23.80;;
78856;SDS011;68207;50.078;19.936;2024-03-22T06:29:56;46.70;;;23.70;;
78856;SDS011;68207;50.078;19.936;2024-03-22T06:32:21;33.70;;;23.50;;
78856;SDS011;68207;50.078;19.936;2024-03-22T06:34:46;32.10;;;22.80;;
78856;SDS011;68207;50.078;19.936;2024-03-22T06:37:11;44.60;;;24.20;;
78856;SDS011;68207;50.078;19.936;2024-03-22T06:39:37;35.50;;;21.90;;
78856;SDS011;68207;50.078;19.936;2024-03-22T06:42:02;39.60;;;24.10;;
78856;SDS011;68207;50.078;19.936;2024-03-22T06:44:27;39.30;;;23.40;;
78856;SDS011;68207;50.078;19.936;2024-03-22T06:46:52;37.30;;;23.10;;
78856;SDS011;68207;50.078;19.936;2024-03-22T06:49:18;32.00;;;21.30;;
78856;SDS011;68207;50.078;19.936;2024-03-22T06:51:43;33.20;;;23.20;;
78856;SDS011;68207;50.078;19.936;2024-03-22T06:54:08;32.80;;;22.20;;
78856;SDS011;68207;50.078;19.936;2024-03-22T06:56:33;30.70;;;21.10;;
78856;SDS011;68207;50.078;19.936;2024-03-22T06:58:59;32.00;;;21.30;;
78856;SDS011;68207;50.078;19.936;2024-03-22T07:01:24;30.00;;;21.00;;
78856;SDS011;68207;50.078;19.936;2024-03-22T07:03:49;31.50;;;21.30;;
78856;SDS011;68207;50.078;19.936;2024-03-22T07:06:14;31.70;;;22.00;;
78856;SDS011;68207;50.078;19.936;2024-03-22T07:08:39;31.90;;;22.00;;
78856;SDS011;68207;50.078;19.936;2024-03-22T07:11:05;36.30;;;22.40;;
78856;SDS011;68207;50.078;19.936;2024-03-22T07:13:31;40.90;;;24.50;;
78856;SDS011;68207;50.078;19.936;2024-03-22T07:15:57;34.80;;;22.90;;
78856;SDS011;68207;50.078;19.936;2024-03-22T07:18:22;37.90;;;22.80;;
78856;SDS011;68207;50.078;19.936;2024-03-22T07:20:47;42.60;;;24.80;;
78856;SDS011;68207;50.078;19.936;2024-03-22T07:23:13;31.70;;;23.00;;
78856;SDS011;68207;50.078;19.936;2024-03-22T07:25:38;42.90;;;25.80;;
78856;SDS011;68207;50.078;19.936;2024-03-22T07:28:03;31.40;;;22.60;;
78856;SDS011;68207;50.078;19.936;2024-03-22T07:30:28;29.80;;;22.20;;
78856;SDS011;68207;50.078;19.936;2024-03-22T07:32:54;27.50;;;21.80;;
78856;SDS011;68207;50.078;19.936;2024-03-22T07:35:19;32.50;;;23.10;;
78856;SDS011;68207;50.078;19.936;2024-03-22T07:37:44;37.00;;;23.90;;
78856;SDS011;68207;50.078;19.936;2024-03-22T07:40:09;33.50;;;23.80;;
78856;SDS011;68207;50.078;19.936;2024-03-22T07:42:35;34.90;;;23.30;;
78856;SDS011;68207;50.078;19.936;2024-03-22T07:45:00;31.00;;;22.90;;
78856;SDS011;68207;50.078;19.936;2024-03-22T07:47:25;35.40;;;22.60;;
78856;SDS011;68207;50.078;19.936;2024-03-22T07:49:50;28.00;;;20.50;;
78856;SDS011;68207;50.078;19.936;2024-03-22T07:52:16;33.20;;;22.90;;
78856;SDS011;68207;50.078;19.936;2024-03-22T07:54:41;30.20;;;21.10;;
78856;SDS011;68207;50.078;19.936;2024-03-22T07:57:06;28.10;;;20.70;;
78856;SDS011;68207;50.078;19.936;2024-03-22T07:59:31;27.40;;;20.20;;
78856;SDS011;68207;50.078;19.936;2024-03-22T08:01:57;29.60;;;21.90;;
78856;SDS011;68207;50.078;19.936;2024-03-22T08:04:22;29.00;;;21.70;;
78856;SDS011;68207;50.078;19.936;2024-03-22T08:06:48;28.20;;;20.30;;
78856;SDS011;68207;50.078;19.936;2024-03-22T08:09:15;27.40;;;20.60;;
78856;SDS011;68207;50.078;19.936;2024-03-22T08:11:41;24.80;;;20.20;;
78856;SDS011;68207;50.078;19.936;2024-03-22T08:14:06;31.70;;;21.40;;
78856;SDS011;68207;50.078;19.936;2024-03-22T08:16:31;27.90;;;20.20;;
78856;SDS011;68207;50.078;19.936;2024-03-22T08:18:57;29.40;;;20.60;;
78856;SDS011;68207;50.078;19.936;2024-03-22T08:21:22;33.00;;;20.10;;
78856;SDS011;68207;50.078;19.936;2024-03-22T08:23:47;30.60;;;20.90;;
78856;SDS011;68207;50.078;19.936;2024-03-22T08:26:13;36.60;;;23.80;;
78856;SDS011;68207;50.078;19.936;2024-03-22T08:28:38;28.70;;;21.70;;
78856;SDS011;68207;50.078;19.936;2024-03-22T08:31:03;32.00;;;21.60;;
78856;SDS011;68207;50.078;19.936;2024-03-22T08:33:29;30.10;;;21.40;;
78856;SDS011;68207;50.078;19.936;2024-03-22T08:35:54;32.80;;;20.60;;
78856;SDS011;68207;50.078;19.936;2024-03-22T08:38:19;30.10;;;21.80;;
78856;SDS011;68207;50.078;19.936;2024-03-22T08:40:44;31.00;;;19.50;;
78856;SDS011;68207;50.078;19.936;2024-03-22T08:43:09;34.70;;;22.70;;
78856;SDS011;68207;50.078;19.936;2024-03-22T08:45:34;27.60;;;20.80;;
78856;SDS011;68207;50.078;19.936;2024-03-22T08:48:00;25.00;;;19.50;;
78856;SDS011;68207;50.078;19.936;2024-03-22T08:50:25;26.60;;;19.50;;
78856;SDS011;68207;50.078;19.936;2024-03-22T08:52:50;24.60;;;18.10;;
78856;SDS011;68207;50.078;19.936;2024-03-22T08:55:16;26.60;;;18.30;;
78856;SDS011;68207;50.078;19.936;2024-03-22T08:57:42;30.40;;;18.70;;
78856;SDS011;68207;50.078;19.936;2024-03-22T09:00:07;27.50;;;18.10;;
78856;SDS011;68207;50.078;19.936;2024-03-22T09:02:33;26.50;;;17.60;;
78856;SDS011;68207;50.078;19.936;2024-03-22T09:04:59;27.80;;;16.90;;
78856;SDS011;68207;50.078;19.936;2024-03-22T09:07:24;27.50;;;18.00;;
78856;SDS011;68207;50.078;19.936;2024-03-22T09:09:49;24.70;;;16.50;;
78856;SDS011;68207;50.078;19.936;2024-03-22T09:12:14;20.10;;;14.80;;
78856;SDS011;68207;50.078;19.936;2024-03-22T09:14:39;23.80;;;16.10;;
78856;SDS011;68207;50.078;19.936;2024-03-22T09:17:05;23.40;;;15.50;;
78856;SDS011;68207;50.078;19.936;2024-03-22T09:19:30;27.20;;;15.30;;
78856;SDS011;68207;50.078;19.936;2024-03-22T09:21:55;18.60;;;14.40;;
78856;SDS011;68207;50.078;19.936;2024-03-22T09:24:20;24.50;;;14.50;;
78856;SDS011;68207;50.078;19.936;2024-03-22T09:26:45;22.60;;;14.20;;
78856;SDS011;68207;50.078;19.936;2024-03-22T09:29:12;19.40;;;14.40;;
78856;SDS011;68207;50.078;19.936;2024-03-22T09:31:38;18.10;;;13.90;;
78856;SDS011;68207;50.078;19.936;2024-03-22T09:34:03;18.70;;;13.20;;
78856;SDS011;68207;50.078;19.936;2024-03-22T09:36:28;18.40;;;13.40;;
78856;SDS011;68207;50.078;19.936;2024-03-22T09:38:56;17.20;;;12.70;;
78856;SDS011;68207;50.078;19.936;2024-03-22T09:41:23;18.90;;;12.60;;
78856;SDS011;68207;50.078;19.936;2024-03-22T09:43:49;18.90;;;11.40;;
78856;SDS011;68207;50.078;19.936;2024-03-22T09:46:16;19.40;;;12.20;;
78856;SDS011;68207;50.078;19.936;2024-03-22T09:48:43;20.50;;;11.20;;
78856;SDS011;68207;50.078;19.936;2024-03-22T09:51:09;16.50;;;10.80;;
78856;SDS011;68207;50.078;19.936;2024-03-22T09:53:34;18.40;;;12.00;;
78856;SDS011;68207;50.078;19.936;2024-03-22T09:56:00;17.30;;;11.40;;
78856;SDS011;68207;50.078;19.936;2024-03-22T09:58:26;19.80;;;11.90;;
78856;SDS011;68207;50.078;19.936;2024-03-22T10:00:52;20.90;;;11.50;;
78856;SDS011;68207;50.078;19.936;2024-03-22T10:03:18;24.90;;;10.70;;
78856;SDS011;68207;50.078;19.936;2024-03-22T10:05:43;23.60;;;12.20;;
78856;SDS011;68207;50.078;19.936;2024-03-22T10:08:08;18.20;;;11.00;;
78856;SDS011;68207;50.078;19.936;2024-03-22T10:10:34;26.80;;;10.70;;
78856;SDS011;68207;50.078;19.936;2024-03-22T10:13:02;18.30;;;10.10;;
78856;SDS011;68207;50.078;19.936;2024-03-22T10:15:32;17.90;;;10.40;;
78856;SDS011;68207;50.078;19.936;2024-03-22T10:17:57;16.40;;;10.70;;
78856;SDS011;68207;50.078;19.936;2024-03-22T10:20:22;15.40;;;9.80;;
78856;SDS011;68207;50.078;19.936;2024-03-22T10:22:57;14.10;;;9.90;;
78856;SDS011;68207;50.078;19.936;2024-03-22T10:25:26;16.30;;;9.90;;
78856;SDS011;68207;50.078;19.936;2024-03-22T10:27:53;14.80;;;9.50;;
78856;SDS011;68207;50.078;19.936;2024-03-22T10:30:18;19.00;;;10.50;;
78856;SDS011;68207;50.078;19.936;2024-03-22T10:32:43;21.90;;;10.20;;
78856;SDS011;68207;50.078;19.936;2024-03-22T10:35:11;15.20;;;9.50;;
78856;SDS011;68207;50.078;19.936;2024-03-22T10:37:36;17.30;;;9.30;;
78856;SDS011;68207;50.078;19.936;2024-03-22T10:40:02;14.00;;;9.10;;
78856;SDS011;68207;50.078;19.936;2024-03-22T10:42:34;18.40;;;10.20;;
78856;SDS011;68207;50.078;19.936;2024-03-22T10:44:59;16.20;;;10.70;;
78856;SDS011;68207;50.078;19.936;2024-03-22T10:47:25;18.30;;;11.90;;
78856;SDS011;68207;50.078;19.936;2024-03-22T10:49:52;17.90;;;11.20;;
78856;SDS011;68207;50.078;19.936;2024-03-22T10:52:21;20.40;;;12.40;;
78856;SDS011;68207;50.078;19.936;2024-03-22T10:54:46;18.50;;;12.00;;
78856;SDS011;68207;50.078;19.936;2024-03-22T10:57:13;14.90;;;10.90;;
78856;SDS011;68207;50.078;19.936;2024-03-22T10:59:42;16.90;;;11.00;;
78856;SDS011;68207;50.078;19.936;2024-03-22T11:02:10;18.60;;;11.30;;
78856;SDS011;68207;50.078;19.936;2024-03-22T11:04:35;17.40;;;10.60;;
78856;SDS011;68207;50.078;19.936;2024-03-22T11:07:00;23.90;;;11.80;;
78856;SDS011;68207;50.078;19.936;2024-03-22T11:09:27;21.60;;;14.50;;
78856;SDS011;68207;50.078;19.936;2024-03-22T11:11:52;23.20;;;13.80;;
78856;SDS011;68207;50.078;19.936;2024-03-22T11:14:18;21.10;;;12.90;;
78856;SDS011;68207;50.078;19.936;2024-03-22T11:16:43;19.70;;;12.40;;
78856;SDS011;68207;50.078;19.936;2024-03-22T11:19:09;18.10;;;13.20;;
78856;SDS011;68207;50.078;19.936;2024-03-22T11:21:34;20.60;;;14.20;;
78856;SDS011;68207;50.078;19.936;2024-03-22T11:24:02;20.30;;;14.20;;
78856;SDS011;68207;50.078;19.936;2024-03-22T11:26:27;19.10;;;13.40;;
78856;SDS011;68207;50.078;19.936;2024-03-22T11:28:53;46.80;;;16.70;;
78856;SDS011;68207;50.078;19.936;2024-03-22T11:31:18;28.30;;;14.50;;
78856;SDS011;68207;50.078;19.936;2024-03-22T11:33:45;19.30;;;14.60;;
78856;SDS011;68207;50.078;19.936;2024-03-22T11:36:10;31.40;;;14.50;;
78856;SDS011;68207;50.078;19.936;2024-03-22T11:38:35;20.60;;;13.90;;
78856;SDS011;68207;50.078;19.936;2024-03-22T11:41:02;23.00;;;15.90;;
78856;SDS011;68207;50.078;19.936;2024-03-22T11:43:28;18.10;;;13.40;;
78856;SDS011;68207;50.078;19.936;2024-03-22T11:45:54;21.80;;;14.80;;
78856;SDS011;68207;50.078;19.936;2024-03-22T11:48:19;20.00;;;13.90;;
78856;SDS011;68207;50.078;19.936;2024-03-22T11:50:45;17.10;;;14.30;;
78856;SDS011;68207;50.078;19.936;2024-03-22T11:53:10;16.80;;;12.90;;
78856;SDS011;68207;50.078;19.936;2024-03-22T11:55:35;17.00;;;12.60;;
78856;SDS011;68207;50.078;19.936;2024-03-22T11:58:00;13.00;;;11.70;;
78856;SDS011;68207;50.078;19.936;2024-03-22T12:00:26;17.40;;;12.80;;
78856;SDS011;68207;50.078;19.936;2024-03-22T12:02:52;19.90;;;12.90;;
78856;SDS011;68207;50.078;19.936;2024-03-22T12:05:17;16.90;;;11.80;;
78856;SDS011;68207;50.078;19.936;2024-03-22T12:07:43;20.70;;;13.10;;
78856;SDS011;68207;50.078;19.936;2024-03-22T12:10:09;24.30;;;13.20;;
78856;SDS011;68207;50.078;19.936;2024-03-22T12:12:34;15.00;;;12.60;;
78856;SDS011;68207;50.078;19.936;2024-03-22T12:14:59;16.80;;;13.50;;
78856;SDS011;68207;50.078;19.936;2024-03-22T12:17:24;17.60;;;12.80;;
78856;SDS011;68207;50.078;19.936;2024-03-22T12:19:49;18.00;;;13.30;;
78856;SDS011;68207;50.078;19.936;2024-03-22T12:22:17;18.70;;;14.00;;
78856;SDS011;68207;50.078;19.936;2024-03-22T12:24:43;20.50;;;14.10;;
78856;SDS011;68207;50.078;19.936;2024-03-22T12:27:08;15.50;;;12.80;;
78856;SDS011;68207;50.078;19.936;2024-03-22T12:29:33;18.00;;;14.20;;
78856;SDS011;68207;50.078;19.936;2024-03-22T12:31:59;29.40;;;15.40;;
78856;SDS011;68207;50.078;19.936;2024-03-22T12:34:26;17.00;;;14.30;;
78856;SDS011;68207;50.078;19.936;2024-03-22T12:36:51;18.80;;;13.40;;
78856;SDS011;68207;50.078;19.936;2024-03-22T12:39:16;19.40;;;13.30;;
78856;SDS011;68207;50.078;19.936;2024-03-22T12:41:42;18.00;;;13.80;;
78856;SDS011;68207;50.078;19.936;2024-03-22T12:44:07;19.20;;;13.40;;
78856;SDS011;68207;50.078;19.936;2024-03-22T12:46:32;17.60;;;12.30;;
78856;SDS011;68207;50.078;19.936;2024-03-22T12:48:57;22.40;;;13.10;;
78856;SDS011;68207;50.078;19.936;2024-03-22T12:51:23;18.40;;;11.90;;
78856;SDS011;68207;50.078;19.936;2024-03-22T12:53:48;17.50;;;13.00;;
78856;SDS011;68207;50.078;19.936;2024-03-22T12:56:14;16.60;;;12.90;;
78856;SDS011;68207;50.078;19.936;2024-03-22T12:58:39;20.20;;;14.40;;
78856;SDS011;68207;50.078;19.936;2024-03-22T13:01:04;17.70;;;12.10;;
78856;SDS011;68207;50.078;19.936;2024-03-22T13:03:30;15.40;;;12.80;;
78856;SDS011;68207;50.078;19.936;2024-03-22T13:05:55;17.40;;;13.30;;
78856;SDS011;68207;50.078;19.936;2024-03-22T13:08:21;18.00;;;12.30;;
78856;SDS011;68207;50.078;19.936;2024-03-22T13:10:46;15.20;;;11.50;;
78856;SDS011;68207;50.078;19.936;2024-03-22T13:13:13;17.30;;;12.20;;
78856;SDS011;68207;50.078;19.936;2024-03-22T13:15:40;17.80;;;12.70;;
78856;SDS011;68207;50.078;19.936;2024-03-22T13:18:06;15.20;;;13.20;;
78856;SDS011;68207;50.078;19.936;2024-03-22T13:20:31;21.90;;;12.50;;
78856;SDS011;68207;50.078;19.936;2024-03-22T13:22:56;20.60;;;13.20;;
78856;SDS011;68207;50.078;19.936;2024-03-22T13:25:22;17.90;;;13.80;;
78856;SDS011;68207;50.078;19.936;2024-03-22T13:27:47;15.70;;;13.90;;
78856;SDS011;68207;50.078;19.936;2024-03-22T13:30:12;15.80;;;12.70;;
78856;SDS011;68207;50.078;19.936;2024-03-22T13:32:37;17.40;;;13.00;;
78856;SDS011;68207;50.078;19.936;2024-03-22T13:35:03;17.00;;;14.00;;
78856;SDS011;68207;50.078;19.936;2024-03-22T13:37:28;18.20;;;13.50;;
78856;SDS011;68207;50.078;19.936;2024-03-22T13:39:53;17.50;;;14.10;;
78856;SDS011;68207;50.078;19.936;2024-03-22T13:42:18;19.10;;;13.70;;
78856;SDS011;68207;50.078;19.936;2024-03-22T13:44:44;28.20;;;15.50;;
78856;SDS011;68207;50.078;19.936;2024-03-22T13:47:09;19.10;;;14.20;;
78856;SDS011;68207;50.078;19.936;2024-03-22T13:49:35;17.10;;;12.70;;
78856;SDS011;68207;50.078;19.936;2024-03-22T13:52:00;19.80;;;14.20;;
78856;SDS011;68207;50.078;19.936;2024-03-22T13:54:25;18.30;;;14.30;;
78856;SDS011;68207;50.078;19.936;2024-03-22T13:56:50;23.00;;;14.30;;
78856;SDS011;68207;50.078;19.936;2024-03-22T13:59:16;19.00;;;13.70;;